sensor_id;sensor_type;location;lat;lon;timestamp;P1;durP1;ratioP1;P2;durP2;ratioP2
18748;SDS011;9503;53.560;10.246;2023-02-11T07:02:30;18.50;;;12.03;;
18748;SDS011;9503;53.560;10.246;2023-02-11T07:04:57;19.87;;;11.87;;
18748;SDS011;9503;53.560;10.246;2023-02-11T07:07:23;25.20;;;12.47;;
18748;SDS011;9503;53.560;10.246;2023-02-11T07:09:50;24.53;;;11.93;;
18748;SDS011;9503;53.560;10.246;2023-02-11T07:12:17;27.17;;;13.07;;
18748;SDS011;9503;53.560;10.246;2023-02-11T07:14:43;24.63;;;13.87;;
18748;SDS011;9503;53.560;10.246;2023-02-11T07:17:10;27.20;;;13.17;;
18748;SDS011;9503;53.560;10.246;2023-02-11T07:19:38;28.20;;;13.93;;
18748;SDS011;9503;53.560;10.246;2023-02-11T07:22:05;28.30;;;13.77;;
18748;SDS011;9503;53.560;10.246;2023-02-11T07:24:32;30.73;;;14.13;;
18748;SDS011;9503;53.560;10.246;2023-02-11T07:26:59;29.77;;;14.23;;
18748;SDS011;9503;53.560;10.246;2023-02-11T07:29:26;29.60;;;15.37;;
18748;SDS011;9503;53.560;10.246;2023-02-11T07:31:52;26.70;;;14.33;;
18748;SDS011;9503;53.560;10.246;2023-02-11T07:34:19;28.87;;;13.93;;
18748;SDS011;9503;53.560;10.246;2023-02-11T07:36:47;30.27;;;14.03;;
18748;SDS011;9503;53.560;10.246;2023-02-11T07:39:14;29.47;;;14.40;;
18748;SDS011;9503;53.560;10.246;2023-02-11T07:41:41;24.40;;;13.67;;
18748;SDS011;9503;53.560;10.246;2023-02-11T07:44:08;28.40;;;14.07;;
18748;SDS011;9503;53.560;10.246;2023-02-11T07:46:35;28.53;;;13.80;;
18748;SDS011;9503;53.560;10.246;2023-02-11T07:49:06;23.97;;;13.70;;
18748;SDS011;9503;53.560;10.246;2023-02-11T07:51:33;27.73;;;14.30;;
18748;SDS011;9503;53.560;10.246;2023-02-11T07:54:01;42.60;;;20.80;;
18748;SDS011;9503;53.560;10.246;2023-02-11T07:56:28;27.17;;;14.77;;
18748;SDS011;9503;53.560;10.246;2023-02-11T07:58:58;21.97;;;12.53;;
18748;SDS011;9503;53.560;10.246;2023-02-11T08:01:27;29.70;;;15.30;;
18748;SDS011;9503;53.560;10.246;2023-02-11T08:03:59;30.57;;;15.60;;
18748;SDS011;9503;53.560;10.246;2023-02-11T08:06:28;29.87;;;16.33;;
18748;SDS011;9503;53.560;10.246;2023-02-11T08:09:02;30.63;;;15.10;;
18748;SDS011;9503;53.560;10.246;2023-02-11T08:11:38;26.93;;;14.37;;
18748;SDS011;9503;53.560;10.246;2023-02-11T08:14:12;27.00;;;14.80;;
18748;SDS011;9503;53.560;10.246;2023-02-11T08:16:41;31.13;;;15.27;;
18748;SDS011;9503;53.560;10.246;2023-02-11T08:19:12;31.67;;;15.70;;
18748;SDS011;9503;53.560;10.246;2023-02-11T08:21:45;30.03;;;15.63;;
18748;SDS011;9503;53.560;10.246;2023-02-11T08:24:13;33.10;;;16.33;;
18748;SDS011;9503;53.560;10.246;2023-02-11T08:26:45;32.90;;;16.50;;
18748;SDS011;9503;53.560;10.246;2023-02-11T08:29:20;34.97;;;17.67;;
18748;SDS011;9503;53.560;10.246;2023-02-11T08:32:05;29.03;;;16.77;;
18748;SDS011;9503;53.560;10.246;2023-02-11T08:34:34;30.00;;;15.73;;
18748;SDS011;9503;53.560;10.246;2023-02-11T08:37:23;35.80;;;17.00;;
18748;SDS011;9503;53.560;10.246;2023-02-11T08:39:54;34.53;;;17.73;;
18748;SDS011;9503;53.560;10.246;2023-02-11T08:42:20;34.50;;;16.57;;
18748;SDS011;9503;53.560;10.246;2023-02-11T08:44:54;34.93;;;16.80;;
18748;SDS011;9503;53.560;10.246;2023-02-11T08:47:21;31.73;;;15.80;;
18748;SDS011;9503;53.560;10.246;2023-02-11T08:49:48;27.50;;;15.07;;
18748;SDS011;9503;53.560;10.246;2023-02-11T08:52:17;25.33;;;14.77;;
18748;SDS011;9503;53.560;10.246;2023-02-11T08:54:45;38.50;;;20.63;;
18748;SDS011;9503;53.560;10.246;2023-02-11T08:57:21;28.93;;;14.47;;
18748;SDS011;9503;53.560;10.246;2023-02-11T09:00:11;29.37;;;14.13;;
18748;SDS011;9503;53.560;10.246;2023-02-11T09:02:56;22.73;;;13.17;;
18748;SDS011;9503;53.560;10.246;2023-02-11T09:05:25;27.73;;;13.13;;
18748;SDS011;9503;53.560;10.246;2023-02-11T09:07:52;23.53;;;12.67;;
18748;SDS011;9503;53.560;10.246;2023-02-11T09:10:28;25.63;;;13.13;;
18748;SDS011;9503;53.560;10.246;2023-02-11T09:13:05;28.17;;;12.90;;
18748;SDS011;9503;53.560;10.246;2023-02-11T09:15:32;25.37;;;13.70;;
18748;SDS011;9503;53.560;10.246;2023-02-11T09:17:59;26.87;;;12.80;;
18748;SDS011;9503;53.560;10.246;2023-02-11T09:20:27;30.37;;;11.90;;
18748;SDS011;9503;53.560;10.246;2023-02-11T09:22:56;18.60;;;11.10;;
18748;SDS011;9503;53.560;10.246;2023-02-11T09:25:24;22.47;;;11.27;;
18748;SDS011;9503;53.560;10.246;2023-02-11T09:27:51;24.67;;;11.10;;
18748;SDS011;9503;53.560;10.246;2023-02-11T09:30:20;28.27;;;12.33;;
18748;SDS011;9503;53.560;10.246;2023-02-11T09:32:54;21.00;;;11.33;;
18748;SDS011;9503;53.560;10.246;2023-02-11T09:35:32;22.07;;;10.70;;
18748;SDS011;9503;53.560;10.246;2023-02-11T09:38:02;23.57;;;11.87;;
18748;SDS011;9503;53.560;10.246;2023-02-11T09:40:29;23.83;;;11.67;;
18748;SDS011;9503;53.560;10.246;2023-02-11T09:42:59;18.90;;;9.97;;
18748;SDS011;9503;53.560;10.246;2023-02-11T09:45:36;23.03;;;10.43;;
18748;SDS011;9503;53.560;10.246;2023-02-11T09:48:11;23.07;;;10.40;;
18748;SDS011;9503;53.560;10.246;2023-02-11T09:50:48;24.57;;;9.93;;
18748;SDS011;9503;53.560;10.246;2023-02-11T09:53:21;21.50;;;9.40;;
18748;SDS011;9503;53.560;10.246;2023-02-11T09:55:51;19.93;;;9.80;;
18748;SDS011;9503;53.560;10.246;2023-02-11T09:58:23;20.70;;;10.67;;
18748;SDS011;9503;53.560;10.246;2023-02-11T10:01:02;24.37;;;10.53;;
18748;SDS011;9503;53.560;10.246;2023-02-11T10:03:59;21.17;;;9.40;;
18748;SDS011;9503;53.560;10.246;2023-02-11T10:06:39;22.60;;;9.40;;
18748;SDS011;9503;53.560;10.246;2023-02-11T10:12:10;22.53;;;9.07;;
18748;SDS011;9503;53.560;10.246;2023-02-11T10:14:55;21.53;;;9.30;;
18748;SDS011;9503;53.560;10.246;2023-02-11T10:17:45;18.27;;;8.80;;
18748;SDS011;9503;53.560;10.246;2023-02-11T10:20:27;19.27;;;7.63;;
18748;SDS011;9503;53.560;10.246;2023-02-11T10:22:59;23.80;;;8.53;;
18748;SDS011;9503;53.560;10.246;2023-02-11T10:25:35;23.07;;;8.47;;
18748;SDS011;9503;53.560;10.246;2023-02-11T10:28:10;23.63;;;8.93;;
18748;SDS011;9503;53.560;10.246;2023-02-11T10:30:40;23.43;;;10.30;;
18748;SDS011;9503;53.560;10.246;2023-02-11T10:33:23;25.20;;;9.60;;
18748;SDS011;9503;53.560;10.246;2023-02-11T10:35:54;27.77;;;8.40;;
18748;SDS011;9503;53.560;10.246;2023-02-11T10:38:22;16.43;;;7.63;;
18748;SDS011;9503;53.560;10.246;2023-02-11T10:40:50;21.27;;;8.00;;
18748;SDS011;9503;53.560;10.246;2023-02-11T10:43:17;16.83;;;7.47;;
18748;SDS011;9503;53.560;10.246;2023-02-11T10:45:51;20.43;;;7.13;;
18748;SDS011;9503;53.560;10.246;2023-02-11T10:48:36;26.73;;;8.13;;
18748;SDS011;9503;53.560;10.246;2023-02-11T10:51:14;21.87;;;7.40;;
18748;SDS011;9503;53.560;10.246;2023-02-11T10:53:43;18.03;;;7.60;;
18748;SDS011;9503;53.560;10.246;2023-02-11T10:56:11;16.10;;;7.33;;
18748;SDS011;9503;53.560;10.246;2023-02-11T10:58:45;21.27;;;7.47;;
18748;SDS011;9503;53.560;10.246;2023-02-11T11:01:21;24.33;;;7.83;;
18748;SDS011;9503;53.560;10.246;2023-02-11T11:03:51;15.70;;;7.83;;
18748;SDS011;9503;53.560;10.246;2023-02-11T11:06:27;11.10;;;6.43;;
18748;SDS011;9503;53.560;10.246;2023-02-11T11:08:56;17.53;;;6.43;;
18748;SDS011;9503;53.560;10.246;2023-02-11T11:11:23;14.60;;;6.10;;
18748;SDS011;9503;53.560;10.246;2023-02-11T11:13:59;18.23;;;6.03;;
18748;SDS011;9503;53.560;10.246;2023-02-11T11:16:28;15.83;;;5.77;;
18748;SDS011;9503;53.560;10.246;2023-02-11T11:19:14;15.70;;;5.87;;
18748;SDS011;9503;53.560;10.246;2023-02-11T11:21:47;12.60;;;5.70;;
18748;SDS011;9503;53.560;10.246;2023-02-11T11:24:17;15.20;;;5.37;;
18748;SDS011;9503;53.560;10.246;2023-02-11T11:26:47;14.10;;;5.30;;
18748;SDS011;9503;53.560;10.246;2023-02-11T11:29:16;15.00;;;5.93;;
18748;SDS011;9503;53.560;10.246;2023-02-11T11:31:49;13.37;;;5.63;;
18748;SDS011;9503;53.560;10.246;2023-02-11T11:34:22;14.80;;;5.37;;
18748;SDS011;9503;53.560;10.246;2023-02-11T11:36:53;11.53;;;5.33;;
18748;SDS011;9503;53.560;10.246;2023-02-11T11:39:22;14.33;;;5.07;;
18748;SDS011;9503;53.560;10.246;2023-02-11T11:41:53;11.00;;;5.27;;
18748;SDS011;9503;53.560;10.246;2023-02-11T11:44:26;13.60;;;5.10;;
18748;SDS011;9503;53.560;10.246;2023-02-11T11:47:05;19.33;;;5.63;;
18748;SDS011;9503;53.560;10.246;2023-02-11T11:49:44;12.73;;;5.13;;
18748;SDS011;9503;53.560;10.246;2023-02-11T11:52:19;9.97;;;4.77;;
18748;SDS011;9503;53.560;10.246;2023-02-11T11:55:03;10.33;;;4.13;;
18748;SDS011;9503;53.560;10.246;2023-02-11T11:57:38;15.87;;;5.63;;
18748;SDS011;9503;53.560;10.246;2023-02-11T12:00:17;10.97;;;4.87;;
18748;SDS011;9503;53.560;10.246;2023-02-11T12:05:52;9.13;;;4.17;;
18748;SDS011;9503;53.560;10.246;2023-02-11T12:08:35;11.63;;;4.27;;
18748;SDS011;9503;53.560;10.246;2023-02-11T12:11:11;8.20;;;4.37;;
18748;SDS011;9503;53.560;10.246;2023-02-11T12:13:56;11.87;;;5.23;;
18748;SDS011;9503;53.560;10.246;2023-02-11T12:16:35;14.00;;;4.80;;
18748;SDS011;9503;53.560;10.246;2023-02-11T12:22:11;13.10;;;4.13;;
18748;SDS011;9503;53.560;10.246;2023-02-11T12:24:55;9.87;;;4.13;;
18748;SDS011;9503;53.560;10.246;2023-02-11T12:27:40;10.63;;;4.03;;
18748;SDS011;9503;53.560;10.246;2023-02-11T12:30:18;7.87;;;4.10;;
18748;SDS011;9503;53.560;10.246;2023-02-11T12:32:55;11.20;;;4.60;;
18748;SDS011;9503;53.560;10.246;2023-02-11T12:35:34;9.27;;;4.43;;
18748;SDS011;9503;53.560;10.246;2023-02-11T12:38:14;10.37;;;4.70;;
18748;SDS011;9503;53.560;10.246;2023-02-11T12:40:54;10.40;;;4.33;;
18748;SDS011;9503;53.560;10.246;2023-02-11T12:43:30;10.63;;;4.47;;
18748;SDS011;9503;53.560;10.246;2023-02-11T12:46:21;7.03;;;4.00;;
18748;SDS011;9503;53.560;10.246;2023-02-11T12:52:21;15.33;;;5.10;;
18748;SDS011;9503;53.560;10.246;2023-02-11T12:55:06;10.93;;;3.97;;
18748;SDS011;9503;53.560;10.246;2023-02-11T12:57:37;8.27;;;4.07;;
18748;SDS011;9503;53.560;10.246;2023-02-11T13:00:11;8.97;;;3.80;;
18748;SDS011;9503;53.560;10.246;2023-02-11T13:02:44;8.87;;;3.53;;
18748;SDS011;9503;53.560;10.246;2023-02-11T13:05:23;12.20;;;4.57;;
18748;SDS011;9503;53.560;10.246;2023-02-11T13:07:55;7.83;;;3.50;;
18748;SDS011;9503;53.560;10.246;2023-02-11T13:10:30;12.63;;;3.63;;
18748;SDS011;9503;53.560;10.246;2023-02-11T13:13:02;11.53;;;3.60;;
18748;SDS011;9503;53.560;10.246;2023-02-11T13:15:45;11.20;;;4.17;;
18748;SDS011;9503;53.560;10.246;2023-02-11T13:18:23;10.00;;;3.70;;
18748;SDS011;9503;53.560;10.246;2023-02-11T13:21:05;14.47;;;4.83;;
18748;SDS011;9503;53.560;10.246;2023-02-11T13:23:48;10.27;;;3.90;;
18748;SDS011;9503;53.560;10.246;2023-02-11T13:26:24;10.50;;;4.40;;
18748;SDS011;9503;53.560;10.246;2023-02-11T13:29:04;12.20;;;4.43;;
18748;SDS011;9503;53.560;10.246;2023-02-11T13:37:21;9.47;;;4.13;;
18748;SDS011;9503;53.560;10.246;2023-02-11T13:39:59;9.27;;;3.77;;
18748;SDS011;9503;53.560;10.246;2023-02-11T13:42:29;12.53;;;4.17;;
18748;SDS011;9503;53.560;10.246;2023-02-11T13:44:59;12.20;;;4.03;;
18748;SDS011;9503;53.560;10.246;2023-02-11T13:47:28;14.07;;;4.13;;
18748;SDS011;9503;53.560;10.246;2023-02-11T13:50:15;18.47;;;4.67;;
18748;SDS011;9503;53.560;10.246;2023-02-11T13:52:54;11.53;;;4.10;;
18748;SDS011;9503;53.560;10.246;2023-02-11T13:55:26;18.77;;;4.47;;
18748;SDS011;9503;53.560;10.246;2023-02-11T13:58:31;12.23;;;5.00;;
18748;SDS011;9503;53.560;10.246;2023-02-11T14:01:04;12.87;;;4.33;;
18748;SDS011;9503;53.560;10.246;2023-02-11T14:03:37;15.77;;;4.57;;
18748;SDS011;9503;53.560;10.246;2023-02-11T14:06:25;12.53;;;4.60;;
18748;SDS011;9503;53.560;10.246;2023-02-11T14:12:24;21.27;;;4.70;;
18748;SDS011;9503;53.560;10.246;2023-02-11T14:14:59;11.17;;;4.77;;
18748;SDS011;9503;53.560;10.246;2023-02-11T14:17:54;15.53;;;4.13;;
18748;SDS011;9503;53.560;10.246;2023-02-11T14:20:31;18.50;;;4.90;;
18748;SDS011;9503;53.560;10.246;2023-02-11T14:23:01;11.70;;;4.00;;
18748;SDS011;9503;53.560;10.246;2023-02-11T14:25:33;16.83;;;4.80;;
18748;SDS011;9503;53.560;10.246;2023-02-11T14:28:06;16.63;;;4.60;;
18748;SDS011;9503;53.560;10.246;2023-02-11T14:33:46;15.20;;;3.87;;
18748;SDS011;9503;53.560;10.246;2023-02-11T14:36:41;10.97;;;3.93;;
18748;SDS011;9503;53.560;10.246;2023-02-11T14:39:29;11.33;;;3.70;;
18748;SDS011;9503;53.560;10.246;2023-02-11T14:42:06;9.50;;;3.67;;
18748;SDS011;9503;53.560;10.246;2023-02-11T14:44:45;17.70;;;4.50;;
18748;SDS011;9503;53.560;10.246;2023-02-11T14:47:20;7.60;;;3.50;;
18748;SDS011;9503;53.560;10.246;2023-02-11T14:49:55;11.43;;;3.50;;
18748;SDS011;9503;53.560;10.246;2023-02-11T14:52:25;9.13;;;4.00;;
18748;SDS011;9503;53.560;10.246;2023-02-11T14:54:57;13.07;;;3.27;;
18748;SDS011;9503;53.560;10.246;2023-02-11T14:57:32;14.30;;;3.63;;
18748;SDS011;9503;53.560;10.246;2023-02-11T15:00:14;14.33;;;3.53;;
18748;SDS011;9503;53.560;10.246;2023-02-11T15:02:45;8.20;;;3.30;;
18748;SDS011;9503;53.560;10.246;2023-02-11T15:05:15;14.37;;;4.00;;
18748;SDS011;9503;53.560;10.246;2023-02-11T15:07:47;12.63;;;4.20;;
18748;SDS011;9503;53.560;10.246;2023-02-11T15:10:20;13.97;;;4.00;;
18748;SDS011;9503;53.560;10.246;2023-02-11T15:12:55;16.73;;;4.50;;
18748;SDS011;9503;53.560;10.246;2023-02-11T15:15:28;17.67;;;4.63;;
18748;SDS011;9503;53.560;10.246;2023-02-11T15:18:01;11.17;;;4.70;;
18748;SDS011;9503;53.560;10.246;2023-02-11T15:20:45;17.33;;;4.00;;
18748;SDS011;9503;53.560;10.246;2023-02-11T15:23:18;10.77;;;4.73;;
18748;SDS011;9503;53.560;10.246;2023-02-11T15:25:51;12.80;;;4.67;;
18748;SDS011;9503;53.560;10.246;2023-02-11T15:28:21;11.20;;;4.27;;
18748;SDS011;9503;53.560;10.246;2023-02-11T15:30:55;16.77;;;4.57;;
18748;SDS011;9503;53.560;10.246;2023-02-11T15:33:29;12.63;;;4.70;;
18748;SDS011;9503;53.560;10.246;2023-02-11T15:36:02;12.03;;;4.53;;
18748;SDS011;9503;53.560;10.246;2023-02-11T15:38:37;14.17;;;4.23;;
18748;SDS011;9503;53.560;10.246;2023-02-11T15:41:07;12.27;;;;;
18748;SDS011;9503;53.560;10.246;2023-02-11T15:44:03;12.63;;;4.60;;
18748;SDS011;9503;53.560;10.246;2023-02-11T15:46:51;10.00;;;4.30;;
18748;SDS011;9503;53.560;10.246;2023-02-11T15:49:20;14.33;;;5.37;;
18748;SDS011;9503;53.560;10.246;2023-02-11T15:51:49;10.63;;;4.50;;
18748;SDS011;9503;53.560;10.246;2023-02-11T15:54:18;11.83;;;4.53;;
18748;SDS011;9503;53.560;10.246;2023-02-11T15:56:47;17.30;;;5.67;;
18748;SDS011;9503;53.560;10.246;2023-02-11T15:59:17;16.13;;;5.67;;
18748;SDS011;9503;53.560;10.246;2023-02-11T16:01:49;19.07;;;6.00;;
18748;SDS011;9503;53.560;10.246;2023-02-11T16:04:17;23.67;;;6.60;;
18748;SDS011;9503;53.560;10.246;2023-02-11T16:06:50;19.23;;;7.47;;
18748;SDS011;9503;53.560;10.246;2023-02-11T16:09:24;22.40;;;6.10;;
18748;SDS011;9503;53.560;10.246;2023-02-11T16:12:00;22.07;;;6.77;;
18748;SDS011;9503;53.560;10.246;2023-02-11T16:14:33;15.97;;;5.90;;
18748;SDS011;9503;53.560;10.246;2023-02-11T16:17:06;25.07;;;6.63;;
18748;SDS011;9503;53.560;10.246;2023-02-11T16:19:44;31.27;;;8.50;;
18748;SDS011;9503;53.560;10.246;2023-02-11T16:22:19;33.13;;;11.77;;
18748;SDS011;9503;53.560;10.246;2023-02-11T16:24:52;25.47;;;7.67;;
18748;SDS011;9503;53.560;10.246;2023-02-11T16:27:25;27.30;;;8.47;;
18748;SDS011;9503;53.560;10.246;2023-02-11T16:29:54;21.67;;;8.97;;
18748;SDS011;9503;53.560;10.246;2023-02-11T16:32:31;18.03;;;6.53;;
18748;SDS011;9503;53.560;10.246;2023-02-11T16:35:06;17.03;;;5.90;;
18748;SDS011;9503;53.560;10.246;2023-02-11T16:37:36;17.77;;;6.47;;
18748;SDS011;9503;53.560;10.246;2023-02-11T16:40:03;18.33;;;6.57;;
18748;SDS011;9503;53.560;10.246;2023-02-11T16:42:36;18.70;;;7.43;;
18748;SDS011;9503;53.560;10.246;2023-02-11T16:45:04;14.87;;;5.67;;
18748;SDS011;9503;53.560;10.246;2023-02-11T16:47:32;21.60;;;6.00;;
18748;SDS011;9503;53.560;10.246;2023-02-11T16:50:10;19.03;;;6.73;;
18748;SDS011;9503;53.560;10.246;2023-02-11T16:52:45;23.50;;;7.67;;
18748;SDS011;9503;53.560;10.246;2023-02-11T16:55:17;15.83;;;6.93;;
18748;SDS011;9503;53.560;10.246;2023-02-11T16:57:44;20.13;;;6.97;;
18748;SDS011;9503;53.560;10.246;2023-02-11T17:00:14;26.33;;;7.10;;
18748;SDS011;9503;53.560;10.246;2023-02-11T17:02:42;21.83;;;7.97;;
18748;SDS011;9503;53.560;10.246;2023-02-11T17:05:16;19.33;;;8.03;;
18748;SDS011;9503;53.560;10.246;2023-02-11T17:07:49;18.27;;;7.10;;
18748;SDS011;9503;53.560;10.246;2023-02-11T17:10:18;19.40;;;7.13;;
18748;SDS011;9503;53.560;10.246;2023-02-11T17:12:49;26.13;;;8.23;;
18748;SDS011;9503;53.560;10.246;2023-02-11T17:15:22;17.93;;;6.50;;
18748;SDS011;9503;53.560;10.246;2023-02-11T17:17:52;21.90;;;7.40;;
18748;SDS011;9503;53.560;10.246;2023-02-11T17:20:36;16.53;;;6.20;;
18748;SDS011;9503;53.560;10.246;2023-02-11T17:23:05;19.50;;;7.60;;
18748;SDS011;9503;53.560;10.246;2023-02-11T17:25:32;17.87;;;7.70;;
18748;SDS011;9503;53.560;10.246;2023-02-11T17:28:02;19.47;;;8.27;;
18748;SDS011;9503;53.560;10.246;2023-02-11T17:30:29;25.07;;;8.30;;
18748;SDS011;9503;53.560;10.246;2023-02-11T17:32:58;23.37;;;8.07;;
18748;SDS011;9503;53.560;10.246;2023-02-11T17:35:25;17.30;;;7.67;;
18748;SDS011;9503;53.560;10.246;2023-02-11T17:37:53;23.17;;;7.43;;
18748;SDS011;9503;53.560;10.246;2023-02-11T17:40:23;22.43;;;7.93;;
18748;SDS011;9503;53.560;10.246;2023-02-11T17:42:50;17.90;;;9.17;;
18748;SDS011;9503;53.560;10.246;2023-02-11T17:45:17;23.53;;;9.97;;
